Cross Creek, Florida
Current Conditions -  °F | °C
As of 6:53 PM on Sunday 23 Nov 2014 (Local Time) from KGNV Reporting Station
Clear Clear  
Wind Chill: 76°   Ceiling: Unl
Heat Index: 76°   Visibility: 10mi
Dew Point: 68°   Wind: 13mph
Humidity: 76%   Direction: 220°SW
Pressure: 29.89"   Gusts: NA
Location:  29.5572°N, 82.1051°W
Report Text: KGNV 232353Z 22011KT 10SM CLR 24/20 A2989 RMK AO2 SLP120 60000 T02440200 10278 20244 53013
Loading
Personal Weather Stations






























Interactive Weather Map New forecast layout! Learn more

10-Day Weather Forecast

Advertisements
Track Severe Weather on mobile